createdAt,value
2023-02-01T00:02:05.472Z,102647.78
2023-02-01T00:04:30.973Z,102644.81
2023-02-01T00:07:07.034Z,102645.03
2023-02-01T00:09:40.078Z,102640.97
2023-02-01T00:12:19.340Z,102652.97
2023-02-01T00:14:49.755Z,102638.22
2023-02-01T00:17:17.874Z,102650.38
2023-02-01T00:19:50.777Z,102650.38
2023-02-01T00:22:23.218Z,102647.38
2023-02-01T00:24:54.348Z,102641.16
2023-02-01T00:27:36.095Z,102637.88
2023-02-01T00:30:12.664Z,102643.28
2023-02-01T00:32:47.121Z,102637.16
2023-02-01T00:35:17.293Z,102641.25
2023-02-01T00:37:46.971Z,102643.03
2023-02-01T00:40:14.961Z,102641.06
2023-02-01T00:42:42.172Z,102638.03
2023-02-01T00:45:12.380Z,102638.50
2023-02-01T00:47:47.385Z,102638.59
2023-02-01T00:50:17.724Z,102634.38
2023-02-01T00:52:45.023Z,102635.19
2023-02-01T00:55:16.539Z,102635.09
2023-02-01T00:57:43.904Z,102639.19
2023-02-01T01:00:14.698Z,102633.81
2023-02-01T01:02:45.571Z,102637.50
2023-02-01T01:05:14.695Z,102637.50
2023-02-01T01:08:15.812Z,102632.38
2023-02-01T01:10:46.256Z,102633.84
2023-02-01T01:13:18.674Z,102633.53
2023-02-01T01:15:46.619Z,102638.97
2023-02-01T01:18:13.946Z,102642.13
2023-02-01T01:20:48.000Z,102642.03
2023-02-01T01:23:16.825Z,102636.28
2023-02-01T01:25:48.110Z,102636.34
2023-02-01T01:28:17.227Z,102643.00
2023-02-01T01:30:50.194Z,102652.41
2023-02-01T01:33:21.568Z,102645.50
2023-02-01T01:35:51.461Z,102646.41
2023-02-01T01:38:21.810Z,102649.00
2023-02-01T01:40:51.812Z,102656.03
2023-02-01T01:43:24.788Z,102651.28
2023-02-01T01:45:55.649Z,102652.06
2023-02-01T01:48:33.955Z,102649.91
2023-02-01T01:51:24.908Z,102651.38
2023-02-01T01:54:21.285Z,102662.19
2023-02-01T01:57:02.488Z,102655.13
2023-02-01T01:59:32.804Z,102647.44
2023-02-01T02:02:12.591Z,102650.75
2023-02-01T02:04:43.152Z,102651.63
2023-02-01T02:07:50.923Z,102642.13
2023-02-01T02:10:21.428Z,102654.72
2023-02-01T02:12:59.253Z,102643.72
2023-02-01T02:15:37.759Z,102645.50
2023-02-01T02:18:28.647Z,102644.56
2023-02-01T02:21:25.893Z,102643.13
2023-02-01T02:24:07.994Z,102647.72
2023-02-01T02:26:41.308Z,102644.97
2023-02-01T02:29:51.366Z,102643.94
2023-02-01T02:36:09.015Z,102635.19
2023-02-01T02:38:59.009Z,102636.88
2023-02-01T02:42:08.236Z,102636.56
2023-02-01T02:45:09.850Z,102642.75
2023-02-01T02:47:56.972Z,102639.25
2023-02-01T02:50:56.259Z,102648.63
2023-02-01T02:53:54.841Z,102632.09
2023-02-01T02:56:45.474Z,102636.97
2023-02-01T02:59:41.584Z,102636.88
2023-02-01T03:02:34.528Z,102639.78
2023-02-01T03:05:19.754Z,102639.66
2023-02-01T03:07:57.464Z,102638.19
2023-02-01T03:10:28.921Z,102635.28
2023-02-01T03:13:01.983Z,102645.06
2023-02-01T03:16:00.153Z,102640.78
2023-02-01T03:18:37.321Z,102644.94
2023-02-01T03:21:10.924Z,102640.56
2023-02-01T03:23:39.831Z,102640.56
2023-02-01T03:26:21.960Z,102643.16
2023-02-01T03:28:57.395Z,102646.34
2023-02-01T03:31:33.101Z,102640.09
2023-02-01T03:34:00.436Z,102642.69
2023-02-01T03:36:35.066Z,102648.13
2023-02-01T03:39:08.470Z,102653.72
2023-02-01T03:42:04.838Z,102653.41
2023-02-01T03:44:58.358Z,102655.81
2023-02-01T03:47:36.882Z,102651.72
2023-02-01T03:50:11.051Z,102657.69
2023-02-01T03:52:55.367Z,102659.38
2023-02-01T03:55:27.575Z,102659.28
2023-02-01T03:58:04.598Z,102662.88
2023-02-01T04:00:36.063Z,102668.84
2023-02-01T04:03:10.475Z,102662.88
2023-02-01T04:05:40.614Z,102667.25
2023-02-01T04:08:09.585Z,102658.41
2023-02-01T04:10:40.975Z,102666.25
2023-02-01T04:13:12.016Z,102673.78
2023-02-01T04:15:42.126Z,102670.31
2023-02-01T04:18:09.613Z,102673.50
2023-02-01T04:20:42.235Z,102678.31
2023-02-01T04:23:09.524Z,102674.22
2023-02-01T04:25:40.161Z,102673.31
2023-02-01T04:28:17.768Z,102675.13
2023-02-01T04:30:50.459Z,102681.88
2023-02-01T04:33:19.700Z,102675.13
2023-02-01T04:35:47.077Z,102677.78
2023-02-01T04:38:21.733Z,102675.19
2023-02-01T04:41:00.494Z,102679.59
2023-02-01T04:43:28.792Z,102675.72
2023-02-01T04:46:02.830Z,102683.38
2023-02-01T04:48:30.185Z,102675.13
2023-02-01T04:51:05.561Z,102674.22
2023-02-01T04:53:33.458Z,102675.72
2023-02-01T04:56:07.025Z,102677.50
2023-02-01T04:58:34.809Z,102672.41
2023-02-01T05:01:05.761Z,102670.53
2023-02-01T05:03:38.825Z,102680.16
2023-02-01T05:06:16.130Z,102686.97
2023-02-01T05:08:51.836Z,102688.28
2023-02-01T05:11:45.439Z,102684.63
2023-02-01T05:14:17.074Z,102687.72
2023-02-01T05:16:47.423Z,102692.09
2023-02-01T05:19:14.911Z,102697.41
2023-02-01T05:22:02.802Z,102703.41
2023-02-01T05:24:30.141Z,102703.06
2023-02-01T05:26:57.914Z,102702.03
2023-02-01T05:29:27.708Z,102708.13
2023-02-01T05:32:03.040Z,102704.91
2023-02-01T05:34:41.789Z,102705.56
2023-02-01T05:37:19.210Z,102704.34
2023-02-01T05:42:40.890Z,102715.59
2023-02-01T05:45:09.328Z,102711.63
2023-02-01T05:47:40.605Z,102704.75
2023-02-01T05:50:14.421Z,102705.09
2023-02-01T05:52:53.890Z,102708.59
2023-02-01T05:55:34.006Z,102713.84
2023-02-01T05:58:01.756Z,102707.44
2023-02-01T06:01:03.118Z,102709.78
2023-02-01T06:03:30.865Z,102712.81
2023-02-01T06:05:58.368Z,102714.00
2023-02-01T06:08:27.050Z,102718.88
2023-02-01T06:11:08.054Z,102724.63
2023-02-01T06:13:39.963Z,102724.50
2023-02-01T06:16:08.863Z,102719.22
2023-02-01T06:19:01.043Z,102724.69
2023-02-01T06:21:31.242Z,102719.50
2023-02-01T06:26:49.512Z,102736.56
2023-02-01T06:29:19.059Z,102735.53
2023-02-01T06:31:49.318Z,102737.31
2023-02-01T06:34:16.677Z,102743.16
2023-02-01T06:36:52.057Z,102735.31
2023-02-01T06:39:32.699Z,102732.72
2023-02-01T06:42:00.510Z,102723.50
2023-02-01T06:44:54.960Z,102730.25
2023-02-01T06:47:22.486Z,102734.63
2023-02-01T06:49:50.830Z,102731.34
2023-02-01T06:52:18.240Z,102729.81
2023-02-01T06:54:58.539Z,102735.47
2023-02-01T06:57:46.227Z,102732.38
2023-02-01T07:00:18.409Z,102742.53
2023-02-01T07:02:47.668Z,102738.84
2023-02-01T07:05:18.092Z,102735.81
2023-02-01T07:07:54.688Z,102739.97
2023-02-01T07:10:33.202Z,102747.16
2023-02-01T07:13:01.749Z,102749.94
2023-02-01T07:15:52.666Z,102747.25
2023-02-01T07:18:42.954Z,102754.41
2023-02-01T07:21:25.478Z,102762.28
2023-02-01T07:24:14.916Z,102757.66
2023-02-01T07:26:49.280Z,102769.09
2023-02-01T07:29:25.207Z,102762.56
2023-02-01T07:34:54.759Z,102770.53
2023-02-01T07:37:30.084Z,102775.25
2023-02-01T07:40:00.434Z,102766.84
2023-02-01T07:42:53.520Z,102768.44
2023-02-01T07:45:23.748Z,102774.69
2023-02-01T07:47:56.017Z,102772.53
2023-02-01T07:50:26.416Z,102775.53
2023-02-01T07:52:55.794Z,102769.47
2023-02-01T07:55:33.165Z,102768.69
2023-02-01T07:58:02.428Z,102766.97
2023-02-01T08:00:49.173Z,102766.53
2023-02-01T08:03:21.270Z,102769.31
2023-02-01T08:05:51.301Z,102773.31
2023-02-01T08:11:28.008Z,102782.53
2023-02-01T08:13:56.580Z,102790.91
2023-02-01T08:16:29.688Z,102790.44
2023-02-01T08:19:02.933Z,102796.13
2023-02-01T08:21:39.109Z,102791.09
2023-02-01T08:24:09.766Z,102794.91
2023-02-01T08:26:40.124Z,102795.31
2023-02-01T08:29:11.564Z,102799.81
2023-02-01T08:31:44.835Z,102806.19
2023-02-01T08:34:13.996Z,102801.53
2023-02-01T08:39:29.552Z,102807.53
2023-02-01T08:42:18.204Z,102803.97
2023-02-01T08:44:45.708Z,102805.81
2023-02-01T08:47:14.898Z,102809.31
2023-02-01T08:50:16.743Z,102804.16
2023-02-01T08:52:59.940Z,102807.78
2023-02-01T08:55:31.340Z,102812.16
2023-02-01T08:58:01.763Z,102810.75
2023-02-01T09:00:28.980Z,102808.84
2023-02-01T09:03:14.704Z,102815.19
2023-02-01T09:05:54.063Z,102811.34
2023-02-01T09:08:25.726Z,102812.84
2023-02-01T09:11:11.506Z,102804.66
2023-02-01T09:13:44.528Z,102805.78
2023-02-01T09:16:29.177Z,102806.19
2023-02-01T09:19:23.881Z,102804.78
2023-02-01T09:21:50.696Z,102802.22
2023-02-01T09:27:04.851Z,102796.56
2023-02-01T09:29:37.524Z,102801.97
2023-02-01T09:32:12.387Z,102794.22
2023-02-01T09:34:50.607Z,102795.25
2023-02-01T09:37:22.947Z,102807.50
2023-02-01T09:40:03.571Z,102800.88
2023-02-01T09:45:50.389Z,102803.19
2023-02-01T09:48:33.836Z,102801.31
2023-02-01T09:51:06.173Z,102805.06
2023-02-01T09:53:42.291Z,102800.91
2023-02-01T09:56:31.687Z,102811.28
2023-02-01T09:59:41.346Z,102807.66
2023-02-01T10:02:31.470Z,102814.06
2023-02-01T10:05:02.333Z,102820.44
2023-02-01T10:07:51.112Z,102816.06
2023-02-01T10:10:51.000Z,102821.16
2023-02-01T10:13:46.644Z,102820.97
2023-02-01T10:17:13.332Z,102822.59
2023-02-01T10:20:22.169Z,102819.22
2023-02-01T10:26:22.686Z,102814.09
2023-02-01T10:29:04.478Z,102816.91
2023-02-01T10:31:43.061Z,102816.78
2023-02-01T10:34:38.591Z,102820.94
2023-02-01T10:37:27.669Z,102817.50
2023-02-01T10:39:59.304Z,102823.13
2023-02-01T10:42:32.935Z,102814.06
2023-02-01T10:45:09.969Z,102825.00
2023-02-01T10:48:06.443Z,102830.75
2023-02-01T10:50:41.802Z,102826.72
2023-02-01T10:53:39.440Z,102822.09
2023-02-01T10:56:11.794Z,102816.03
2023-02-01T10:58:49.435Z,102822.13
2023-02-01T11:01:23.821Z,102810.25
2023-02-01T11:04:28.733Z,102807.94
2023-02-01T11:07:27.959Z,102806.91
2023-02-01T11:10:09.169Z,102805.06
2023-02-01T11:12:39.926Z,102793.19
2023-02-01T11:15:15.856Z,102790.47
2023-02-01T11:17:52.283Z,102781.75
2023-02-01T11:20:41.253Z,102784.47
2023-02-01T11:23:31.832Z,102770.84
2023-02-01T11:26:13.311Z,102762.56
2023-02-01T11:28:59.744Z,102770.06
2023-02-01T11:31:41.688Z,102760.75
2023-02-01T11:37:58.481Z,102744.19
2023-02-01T11:40:47.863Z,102738.31
2023-02-01T11:43:38.462Z,102734.56
2023-02-01T11:46:27.896Z,102727.94
2023-02-01T11:49:32.090Z,102718.25
2023-02-01T11:52:36.849Z,102709.38
2023-02-01T11:55:28.206Z,102700.41
2023-02-01T11:58:38.072Z,102693.41
2023-02-01T12:01:14.298Z,102680.72
2023-02-01T12:04:16.049Z,102683.47
2023-02-01T12:06:58.754Z,102668.84
2023-02-01T12:10:21.610Z,102660.13
2023-02-01T12:13:17.284Z,102645.91
2023-02-01T12:15:59.645Z,102653.63
2023-02-01T12:18:52.132Z,102638.06
2023-02-01T12:21:51.642Z,102627.47
2023-02-01T12:24:32.428Z,102622.38
2023-02-01T12:27:28.964Z,102605.53
2023-02-01T12:30:16.629Z,102592.66
2023-02-01T12:33:19.512Z,102576.31
2023-02-01T12:36:19.720Z,102567.28
2023-02-01T12:39:12.277Z,102570.41
2023-02-01T12:42:19.673Z,102564.59
2023-02-01T12:45:19.816Z,102558.81
2023-02-01T12:51:24.620Z,102556.47
2023-02-01T12:54:03.999Z,102551.03
2023-02-01T12:57:07.023Z,102547.13
2023-02-01T13:00:06.686Z,102536.53
2023-02-01T13:06:40.766Z,102534.63
2023-02-01T13:09:51.131Z,102527.03
2023-02-01T13:12:50.801Z,102539.25
2023-02-01T13:15:34.726Z,102531.53
2023-02-01T13:18:09.747Z,102529.16
2023-02-01T13:20:48.276Z,102534.94
2023-02-01T13:23:38.685Z,102535.00
2023-02-01T13:26:09.926Z,102528.09
2023-02-01T13:29:16.465Z,102524.72
2023-02-01T13:32:02.051Z,102520.63
2023-02-01T13:35:07.226Z,102523.50
2023-02-01T13:41:40.255Z,102520.34
2023-02-01T13:44:45.420Z,102518.56
2023-02-01T13:47:54.678Z,102520.94
2023-02-01T13:50:44.136Z,102523.91
2023-02-01T13:56:49.775Z,102522.09
2023-02-01T13:59:46.442Z,102524.19
2023-02-01T14:02:48.505Z,102520.91
2023-02-01T14:05:46.530Z,102534.19
2023-02-01T14:08:42.276Z,102532.88
2023-02-01T14:11:50.057Z,102535.84
2023-02-01T14:14:17.236Z,102531.97
2023-02-01T14:17:05.905Z,102526.47
2023-02-01T14:19:39.161Z,102543.69
2023-02-01T14:22:45.042Z,102536.91
2023-02-01T14:25:24.421Z,102538.03
2023-02-01T14:28:00.844Z,102537.78
2023-02-01T14:30:36.331Z,102544.88
2023-02-01T14:33:21.733Z,102544.91
2023-02-01T14:36:27.292Z,102552.38
2023-02-01T14:39:37.086Z,102550.22
2023-02-01T14:43:23.402Z,102557.97
2023-02-01T14:46:22.808Z,102571.34
2023-02-01T14:49:02.279Z,102566.19
2023-02-01T14:51:40.139Z,102560.50
2023-02-01T14:54:15.221Z,102565.16
2023-02-01T14:56:54.913Z,102560.44
2023-02-01T14:59:26.731Z,102571.38
2023-02-01T15:02:08.507Z,102575.63
2023-02-01T15:04:54.637Z,102572.84
2023-02-01T15:07:34.180Z,102575.88
2023-02-01T15:17:17.729Z,102586.84
2023-02-01T15:23:18.061Z,102589.81
2023-02-01T15:32:11.027Z,102605.81
2023-02-01T15:34:59.177Z,102600.53
2023-02-01T15:41:36.381Z,102610.91
2023-02-01T15:44:42.214Z,102614.47
2023-02-01T15:47:42.419Z,102623.13
2023-02-01T15:50:31.924Z,102622.63
2023-02-01T15:53:59.090Z,102618.38
2023-02-01T15:57:08.181Z,102629.53
2023-02-01T16:00:22.597Z,102624.22
2023-02-01T16:04:03.719Z,102626.03
2023-02-01T16:07:44.034Z,102616.97
2023-02-01T16:10:40.426Z,102622.25
2023-02-01T16:13:39.587Z,102613.56
2023-02-01T16:16:50.568Z,102611.88
2023-02-01T16:20:01.690Z,102620.91
2023-02-01T16:23:00.431Z,102614.91
2023-02-01T16:25:46.333Z,102621.25
2023-02-01T16:31:55.116Z,102633.94
2023-02-01T16:34:59.381Z,102622.19
2023-02-01T16:37:43.101Z,102629.50
2023-02-01T16:40:54.092Z,102619.75
2023-02-01T16:44:07.179Z,102620.84
2023-02-01T16:47:13.264Z,102625.34
2023-02-01T16:50:08.273Z,102626.75
2023-02-01T16:53:15.799Z,102630.56
2023-02-01T16:56:17.952Z,102639.41
2023-02-01T16:58:58.617Z,102645.44
2023-02-01T17:01:41.667Z,102650.06
2023-02-01T17:04:21.980Z,102641.47
2023-02-01T17:07:26.190Z,102645.50
2023-02-01T17:13:54.765Z,102658.78
2023-02-01T17:16:54.286Z,102664.66
2023-02-01T17:22:41.686Z,102662.47
2023-02-01T17:25:27.486Z,102669.53
2023-02-01T17:28:24.971Z,102668.56
2023-02-01T17:30:59.338Z,102672.91
2023-02-01T17:33:36.639Z,102682.00
2023-02-01T17:36:14.663Z,102679.91
2023-02-01T17:41:40.166Z,102675.41
2023-02-01T17:44:17.319Z,102684.78
2023-02-01T17:47:01.557Z,102682.41
2023-02-01T17:49:56.745Z,102695.03
2023-02-01T17:52:32.102Z,102688.88
2023-02-01T17:55:31.999Z,102699.81
2023-02-01T17:58:10.267Z,102698.41
2023-02-01T18:01:08.083Z,102695.66
2023-02-01T18:03:48.501Z,102707.41
2023-02-01T18:06:44.013Z,102699.88
2023-02-01T18:09:31.105Z,102700.31
2023-02-01T18:15:28.933Z,102698.16
2023-02-01T18:18:39.196Z,102700.31
2023-02-01T18:24:08.037Z,102706.09
2023-02-01T18:26:44.233Z,102709.56
2023-02-01T18:29:26.580Z,102714.50
2023-02-01T18:32:15.859Z,102702.75
2023-02-01T18:35:05.776Z,102696.22
2023-02-01T18:41:30.570Z,102700.44
2023-02-01T18:44:03.656Z,102693.72
2023-02-01T18:46:33.374Z,102685.72
2023-02-01T18:49:14.527Z,102689.13
2023-02-01T18:54:58.776Z,102677.06
2023-02-01T18:57:45.336Z,102690.69
2023-02-01T19:00:27.406Z,102688.25
2023-02-01T19:03:20.256Z,102686.75
2023-02-01T19:06:18.742Z,102684.22
2023-02-01T19:08:59.247Z,102683.69
2023-02-01T19:11:51.381Z,102686.75
2023-02-01T19:14:39.382Z,102678.31
2023-02-01T19:17:10.203Z,102682.13
2023-02-01T19:20:00.338Z,102681.34
2023-02-01T19:22:43.090Z,102679.81
2023-02-01T19:25:20.996Z,102675.44
2023-02-01T19:28:00.667Z,102688.03
2023-02-01T19:31:07.070Z,102688.69
2023-02-01T19:33:57.293Z,102684.66
2023-02-01T19:36:44.654Z,102686.31
2023-02-01T19:39:30.173Z,102688.75
2023-02-01T19:42:30.817Z,102686.09
2023-02-01T19:45:16.716Z,102689.38
2023-02-01T19:48:07.970Z,102694.53
2023-02-01T19:50:49.105Z,102691.03
2023-02-01T19:53:39.141Z,102693.44
2023-02-01T19:56:28.365Z,102696.66
2023-02-01T20:02:06.783Z,102700.44
2023-02-01T20:04:36.948Z,102698.91
2023-02-01T20:10:09.997Z,102716.09
2023-02-01T20:12:49.992Z,102712.16
2023-02-01T20:15:20.403Z,102712.28
2023-02-01T20:17:58.272Z,102718.56
2023-02-01T20:21:41.120Z,102720.03
2023-02-01T20:27:13.001Z,102726.84
2023-02-01T20:30:12.119Z,102723.41
2023-02-01T20:35:57.236Z,102729.06
2023-02-01T20:38:33.044Z,102717.00
2023-02-01T20:41:22.502Z,102708.97
2023-02-01T20:44:11.476Z,102711.16
2023-02-01T20:46:56.133Z,102713.56
2023-02-01T20:49:43.673Z,102715.41
2023-02-01T20:52:39.310Z,102714.13
2023-02-01T20:55:27.695Z,102717.06
2023-02-01T20:58:11.146Z,102707.44
2023-02-01T21:00:46.493Z,102710.13
2023-02-01T21:03:32.341Z,102710.13
2023-02-01T21:06:23.802Z,102705.03
2023-02-01T21:08:59.655Z,102705.94
2023-02-01T21:11:46.950Z,102704.00
2023-02-01T21:14:37.827Z,102704.47
2023-02-01T21:17:25.986Z,102708.41
2023-02-01T21:23:02.194Z,102709.84
2023-02-01T21:25:32.686Z,102710.88
2023-02-01T21:28:20.133Z,102713.34
2023-02-01T21:31:18.391Z,102706.66
2023-02-01T21:34:03.979Z,102709.16
2023-02-01T21:36:48.865Z,102705.75
2023-02-01T21:39:39.439Z,102717.22
2023-02-01T21:42:34.870Z,102715.72
2023-02-01T21:45:15.911Z,102711.31
2023-02-01T21:48:00.804Z,102716.72
2023-02-01T21:50:30.908Z,102722.50
2023-02-01T21:53:05.119Z,102725.09
2023-02-01T21:55:49.695Z,102716.47
2023-02-01T21:58:24.405Z,102720.50
2023-02-01T22:01:01.119Z,102724.72
2023-02-01T22:03:36.250Z,102734.16
2023-02-01T22:06:07.145Z,102735.13
2023-02-01T22:08:38.752Z,102730.44
2023-02-01T22:11:09.008Z,102725.78
2023-02-01T22:13:39.898Z,102734.31
2023-02-01T22:16:07.418Z,102738.75
2023-02-01T22:18:40.901Z,102730.66
2023-02-01T22:21:08.437Z,102739.28
2023-02-01T22:23:35.589Z,102747.16
2023-02-01T22:26:06.752Z,102744.41
2023-02-01T22:28:42.412Z,102747.03
2023-02-01T22:31:21.921Z,102759.44
2023-02-01T22:33:59.346Z,102757.13
2023-02-01T22:36:36.485Z,102754.38
2023-02-01T22:39:10.294Z,102751.38
2023-02-01T22:41:48.333Z,102758.69
2023-02-01T22:44:29.845Z,102765.22
2023-02-01T22:47:02.833Z,102763.44
2023-02-01T22:49:33.131Z,102767.00
2023-02-01T22:52:06.372Z,102769.06
2023-02-01T22:54:43.627Z,102769.47
2023-02-01T22:57:20.787Z,102766.63
2023-02-01T22:59:58.067Z,102757.25
2023-02-01T23:02:37.409Z,102756.88
2023-02-01T23:05:05.791Z,102763.63
2023-02-01T23:07:38.583Z,102758.28
2023-02-01T23:10:09.194Z,102759.16
2023-02-01T23:12:36.498Z,102753.72
2023-02-01T23:15:08.659Z,102746.56
2023-02-01T23:17:40.042Z,102750.06
2023-02-01T23:20:17.869Z,102748.03
2023-02-01T23:22:49.848Z,102745.34
2023-02-01T23:25:22.988Z,102744.78
2023-02-01T23:27:54.067Z,102742.94
2023-02-01T23:30:33.252Z,102745.34
2023-02-01T23:33:09.148Z,102747.06
2023-02-01T23:35:38.188Z,102740.97
2023-02-01T23:38:10.873Z,102742.53
2023-02-01T23:40:38.335Z,102745.03
2023-02-01T23:46:08.617Z,102748.53
2023-02-01T23:48:42.368Z,102742.94
2023-02-01T23:51:15.481Z,102740.91
2023-02-01T23:53:52.279Z,102732.06
2023-02-01T23:56:39.571Z,102730.66
2023-02-01T23:59:29.884Z,102728.00
